Adair, Missouri
Current Conditions -  °F | °C
As of 7:29 AM on Thursday 18 Dec 2014 (Local Time) from KIRK Reporting Station
Light Snow Light Snow  
Wind Chill: 18°   Ceiling: 2900
Heat Index: 25°   Visibility: 1.2mi
Dew Point: 24°   Wind: 6mph
Humidity: 96%   Direction: 70°ENE
Pressure: 30.28"   Gusts: NA
Location:  40.2186°N, 92.4328°W
Report Text: KIRK 181329Z AUTO 07005KT 1 1/4SM -SN BR OVC029 M04/M04 A3028 RMK AO2 P0000 T10391044
Loading
Personal Weather Stations






























Interactive Weather Map New forecast layout! Learn more

10-Day Weather Forecast

Advertisements
Track Severe Weather on mobile